createdAt,value
2019-04-05T00:00:01.731Z,12.20
2019-04-05T00:05:06.303Z,13.00
2019-04-05T00:10:08.722Z,12.03
2019-04-05T00:15:15.525Z,12.37
2019-04-05T00:20:14.352Z,11.93
2019-04-05T00:25:15.837Z,12.10
2019-04-05T00:30:17.706Z,12.33
2019-04-05T00:35:19.372Z,12.60
2019-04-05T00:40:21.011Z,12.40
2019-04-05T00:45:28.286Z,12.00
2019-04-05T00:50:26.148Z,12.17
2019-04-05T00:55:27.626Z,12.20
2019-04-05T01:00:29.144Z,12.37
2019-04-05T01:05:30.728Z,12.17
2019-04-05T01:10:32.381Z,11.97
2019-04-05T01:15:40.829Z,12.43
2019-04-05T01:20:40.856Z,13.23
2019-04-05T01:25:43.259Z,12.10
2019-04-05T01:30:45.241Z,12.37
2019-04-05T01:35:46.711Z,12.43
2019-04-05T01:40:48.271Z,13.00
2019-04-05T01:45:54.015Z,13.60
2019-04-05T01:50:54.281Z,12.37
2019-04-05T01:55:55.752Z,13.23
2019-04-05T02:00:57.303Z,12.70
2019-04-05T02:05:59.046Z,12.57
2019-04-05T02:11:00.806Z,12.37
2019-04-05T02:16:06.752Z,13.10
2019-04-05T02:21:05.740Z,13.83
2019-04-05T02:26:07.402Z,13.53
2019-04-05T02:31:09.186Z,12.83
2019-04-05T02:36:10.664Z,13.73
2019-04-05T02:41:13.954Z,13.40
2019-04-05T02:46:23.785Z,13.90
2019-04-05T02:51:25.211Z,14.03
2019-04-05T02:56:30.484Z,13.63
2019-04-05T03:01:32.869Z,14.20
2019-04-05T03:06:34.645Z,14.10
2019-04-05T03:11:37.622Z,14.43
2019-04-05T03:16:44.399Z,14.00
2019-04-05T03:21:50.366Z,15.13
2019-04-05T03:26:57.565Z,14.07
2019-04-05T03:31:59.443Z,13.73
2019-04-05T03:37:01.219Z,13.93
2019-04-05T03:42:03.311Z,13.67
2019-04-05T03:47:05.779Z,14.27
2019-04-05T03:52:07.451Z,13.93
2019-04-05T03:57:09.531Z,14.77
2019-04-05T04:02:11.268Z,14.87
2019-04-05T04:07:13.090Z,14.97
2019-04-05T04:12:14.963Z,14.60
2019-04-05T04:17:16.828Z,15.27
2019-04-05T04:22:27.729Z,15.17
2019-04-05T04:27:29.936Z,15.50
2019-04-05T04:32:31.902Z,14.53
2019-04-05T04:37:33.472Z,15.63
2019-04-05T04:42:35.948Z,15.87
2019-04-05T04:47:38.580Z,16.60
2019-04-05T04:52:40.351Z,15.60
2019-04-05T04:57:42.381Z,15.97
2019-04-05T05:02:44.520Z,17.33
2019-04-05T05:07:46.787Z,16.93
2019-04-05T05:12:49.569Z,16.33
2019-04-05T05:17:58.411Z,17.63
2019-04-05T05:22:55.899Z,16.67
2019-04-05T05:27:57.978Z,16.40
2019-04-05T05:32:59.960Z,16.27
2019-04-05T05:38:01.740Z,16.83
2019-04-05T05:43:03.451Z,17.00
2019-04-05T05:48:05.318Z,18.07
2019-04-05T05:53:06.991Z,18.10
2019-04-05T05:58:08.466Z,17.73
2019-04-05T06:03:11.341Z,18.63
2019-04-05T06:08:13.334Z,17.27
2019-04-05T06:13:14.808Z,17.50
2019-04-05T06:18:16.261Z,17.20
2019-04-05T06:23:18.118Z,18.60
2019-04-05T06:28:19.598Z,17.57
2019-04-05T06:33:31.349Z,18.53
2019-04-05T06:38:24.562Z,17.37
2019-04-05T06:43:26.015Z,17.37
2019-04-05T06:48:29.369Z,17.67
2019-04-05T06:53:30.854Z,16.90
2019-04-05T06:58:32.308Z,17.13
2019-04-05T07:03:33.928Z,17.40
2019-04-05T07:08:35.398Z,16.60
2019-04-05T07:13:37.083Z,17.07
2019-04-05T07:18:38.542Z,16.93
2019-04-05T07:23:40.039Z,17.10
2019-04-05T07:28:41.503Z,16.93
2019-04-05T07:33:42.981Z,19.10
2019-04-05T07:38:44.459Z,19.00
2019-04-05T07:43:46.353Z,19.60
2019-04-05T07:48:47.881Z,23.43
2019-04-05T07:53:49.376Z,24.67
2019-04-05T07:58:51.163Z,26.47
2019-04-05T08:03:53.039Z,25.37
2019-04-05T08:09:05.706Z,28.60
2019-04-05T08:14:08.615Z,28.13
2019-04-05T08:19:10.091Z,32.13
2019-04-05T08:24:11.559Z,31.63
2019-04-05T08:29:13.414Z,31.97
2019-04-05T08:34:14.895Z,31.83
2019-04-05T08:39:16.722Z,33.70
2019-04-05T08:44:18.230Z,32.87
2019-04-05T08:49:19.626Z,35.93
2019-04-05T08:54:31.917Z,35.07
2019-04-05T08:59:24.943Z,35.80
2019-04-05T09:04:26.528Z,35.50
2019-04-05T09:09:28.020Z,34.93
2019-04-05T09:14:29.486Z,37.13
2019-04-05T09:19:31.251Z,37.87
2019-04-05T09:24:33.100Z,38.03
2019-04-05T09:29:34.576Z,36.23
2019-04-05T09:34:36.340Z,36.73
2019-04-05T09:39:37.833Z,36.73
2019-04-05T09:44:39.811Z,37.40
2019-04-05T09:49:41.768Z,35.63
2019-04-05T09:54:43.243Z,38.63
2019-04-05T09:59:45.110Z,37.77
2019-04-05T10:04:46.591Z,37.43
2019-04-05T10:09:50.442Z,39.60
2019-04-05T10:14:51.519Z,38.23
2019-04-05T10:19:53.106Z,38.97
2019-04-05T10:24:54.731Z,36.93
2019-04-05T10:29:56.206Z,36.97
2019-04-05T10:34:57.687Z,36.53
2019-04-05T10:39:59.614Z,37.17
2019-04-05T10:45:01.185Z,37.23
2019-04-05T10:50:06.733Z,35.83
2019-04-05T10:55:08.806Z,37.33
2019-04-05T11:00:14.858Z,36.37
2019-04-05T11:05:16.779Z,36.73
2019-04-05T11:10:18.963Z,33.87
2019-04-05T11:15:20.940Z,31.47
2019-04-05T11:20:22.725Z,34.37
2019-04-05T11:25:24.695Z,35.17
2019-04-05T11:30:42.142Z,34.57
2019-04-05T11:35:43.792Z,34.77
2019-04-05T11:40:46.145Z,34.17
2019-04-05T11:45:48.556Z,35.93
2019-04-05T11:50:51.793Z,34.13
2019-04-05T11:55:53.249Z,34.13
2019-04-05T12:01:11.752Z,32.83
2019-04-05T12:06:13.226Z,31.50
2019-04-05T12:11:15.058Z,29.97
2019-04-05T12:16:16.935Z,29.77
2019-04-05T12:21:20.772Z,30.20
2019-04-05T12:26:22.074Z,30.17
2019-04-05T12:31:25.614Z,31.43
2019-04-05T12:36:27.136Z,30.17
2019-04-05T12:41:28.618Z,28.30
2019-04-05T12:46:30.094Z,28.93
2019-04-05T12:51:31.842Z,28.17
2019-04-05T12:56:33.315Z,29.47
2019-04-05T13:01:34.909Z,27.50
2019-04-05T13:06:36.714Z,28.10
2019-04-05T13:11:38.274Z,28.00
2019-04-05T13:16:39.748Z,28.00
2019-04-05T13:21:41.229Z,27.67
2019-04-05T13:26:42.849Z,27.00
2019-04-05T13:31:44.368Z,27.63
2019-04-05T13:36:45.947Z,25.03
2019-04-05T13:41:47.419Z,26.43
2019-04-05T13:46:48.917Z,25.13
2019-04-05T13:51:50.501Z,25.20
2019-04-05T13:56:51.968Z,26.10
2019-04-05T14:02:05.630Z,28.73
2019-04-05T14:06:57.344Z,26.13
2019-04-05T14:11:59.466Z,25.33
2019-04-05T14:17:00.945Z,26.97
2019-04-05T14:22:08.227Z,25.10
2019-04-05T14:27:05.979Z,25.33
2019-04-05T14:32:20.341Z,22.80
2019-04-05T14:37:10.933Z,25.37
2019-04-05T14:42:14.804Z,22.83
2019-04-05T14:47:16.222Z,24.57
2019-04-05T14:52:17.701Z,24.67
2019-04-05T14:57:19.435Z,25.60
2019-04-05T15:02:21.301Z,25.40
2019-04-05T15:07:22.774Z,26.27
2019-04-05T15:12:24.266Z,25.27
2019-04-05T15:17:25.755Z,26.07
2019-04-05T15:22:27.788Z,29.17
2019-04-05T15:27:29.640Z,28.13
2019-04-05T15:32:32.720Z,29.00
2019-04-05T15:37:37.209Z,26.93
2019-04-05T15:42:37.726Z,29.53
2019-04-05T15:47:39.195Z,28.27
2019-04-05T15:52:40.667Z,31.47
2019-04-05T15:57:42.547Z,30.27
2019-04-05T16:02:44.536Z,30.90
2019-04-05T16:07:46.036Z,31.27
2019-04-05T16:12:47.546Z,31.07
2019-04-05T16:17:49.020Z,31.13
2019-04-05T16:22:50.802Z,31.63
2019-04-05T16:27:52.580Z,29.77
2019-04-05T16:32:54.345Z,30.97
2019-04-05T16:37:55.822Z,31.87
2019-04-05T16:43:02.714Z,31.17
2019-04-05T16:48:01.417Z,32.43
2019-04-05T16:53:02.945Z,30.83
2019-04-05T16:58:04.452Z,32.70
2019-04-05T17:03:06.525Z,32.50
2019-04-05T17:08:08.009Z,32.50
2019-04-05T17:13:09.654Z,32.23
2019-04-05T17:18:11.652Z,32.90
2019-04-05T17:23:13.117Z,31.60
2019-04-05T17:28:14.663Z,34.40
2019-04-05T17:33:16.812Z,32.73
2019-04-05T17:38:18.738Z,31.83
2019-04-05T17:43:20.464Z,30.77
2019-04-05T17:48:22.050Z,31.83
2019-04-05T17:53:23.854Z,31.43
2019-04-05T17:58:28.015Z,30.97
2019-04-05T18:03:29.946Z,32.47
2019-04-05T18:08:31.551Z,32.17
2019-04-05T18:13:33.412Z,31.43
2019-04-05T18:18:35.314Z,31.63
2019-04-05T18:23:37.104Z,32.87
2019-04-05T18:28:38.858Z,31.40
2019-04-05T18:33:40.812Z,31.93
2019-04-05T18:38:42.686Z,31.43
2019-04-05T18:43:44.209Z,31.93
2019-04-05T18:48:45.771Z,30.97
2019-04-05T18:53:47.487Z,31.23
2019-04-05T18:58:49.002Z,30.13
2019-04-05T19:03:50.575Z,30.23
2019-04-05T19:08:52.553Z,31.17
2019-04-05T19:14:01.060Z,29.83
2019-04-05T19:18:57.571Z,31.50
2019-04-05T19:23:59.269Z,31.50
2019-04-05T19:29:01.145Z,30.73
2019-04-05T19:49:13.358Z,29.57
2019-04-05T19:54:14.779Z,30.67
2019-04-05T19:59:16.252Z,28.13
2019-04-05T20:04:17.835Z,28.30
2019-04-05T20:09:21.006Z,29.47
2019-04-05T20:14:22.579Z,28.03
2019-04-05T20:19:24.557Z,28.67
2019-04-05T20:24:26.953Z,28.93
2019-04-05T20:29:28.511Z,28.40
2019-04-05T20:34:30.079Z,29.43
2019-04-05T20:39:31.655Z,27.97
2019-04-05T20:44:33.486Z,28.00
2019-04-05T20:49:35.284Z,27.90
2019-04-05T20:54:36.872Z,27.60
2019-04-05T20:59:38.356Z,27.03
2019-04-05T21:04:40.270Z,28.47
2019-04-05T21:09:42.264Z,28.50
2019-04-05T21:14:43.858Z,28.07
2019-04-05T21:19:45.702Z,26.97
2019-04-05T21:24:47.471Z,28.30
2019-04-05T21:29:49.067Z,27.47
2019-04-05T21:34:50.659Z,26.43
2019-04-05T21:39:52.198Z,27.07
2019-04-05T21:44:53.668Z,26.60
2019-04-05T21:49:55.659Z,26.33
2019-04-05T21:54:57.189Z,25.70
2019-04-05T21:59:58.663Z,25.07
2019-04-05T22:05:01.391Z,24.63
2019-04-05T22:10:05.197Z,23.40
2019-04-05T22:15:07.456Z,24.90
2019-04-05T22:20:09.119Z,25.20
2019-04-05T22:25:10.688Z,23.73
2019-04-05T22:30:12.295Z,24.17
2019-04-05T22:35:13.767Z,22.60
2019-04-05T22:40:15.243Z,22.63
2019-04-05T22:45:17.075Z,23.13
2019-04-05T22:50:18.950Z,21.73
2019-04-05T22:55:20.422Z,21.90
2019-04-05T23:00:22.599Z,22.10
2019-04-05T23:05:24.057Z,22.63
2019-04-05T23:10:25.878Z,22.43
2019-04-05T23:15:27.439Z,21.97
2019-04-05T23:20:28.912Z,21.00
2019-04-05T23:25:30.367Z,21.20
2019-04-05T23:30:32.748Z,20.67
2019-04-05T23:35:34.219Z,21.17
2019-04-05T23:40:35.799Z,21.70
2019-04-05T23:45:37.291Z,20.57
2019-04-05T23:50:39.206Z,20.33
2019-04-05T23:55:40.996Z,20.03
